Terminal Aerodrome Forecast
Issued by NWS North Platte, NE

Home | Current Version | Previous Version | Text Only | Print | Product List | Glossary Off
Versions: 1 2 3 4 5 6 7 8 9 10 11 12 13 14 15 16 17

000
FTUS43 KLBF 261120
TAFVTN
TAF
KVTN 261120Z 2612/2712 31007KT P6SM FEW200
     FM261500 34011KT P6SM FEW250
     FM262000 33007KT P6SM FEW250
     FM262300 01006KT P6SM SCT200
     FM270000 03005KT P6SM BKN140
     FM270600 01007KT P6SM -SHRA VCTS OVC060CB
     FM271000 01007KT P6SM -SHRA VCTS OVC030CB=

USA.gov is the U.S. government's official web portal to all federal, state and local government web resources and services.